EDT,Max TemperatureF,Mean TemperatureF,Min TemperatureF,Max Dew PointF,MeanDew PointF,Min DewpointF,Max Humidity, Mean Humidity, Min Humidity, Max Sea Level PressureIn, Mean Sea Level PressureIn, Min Sea Level PressureIn, Max VisibilityMiles, Mean VisibilityMiles, Min VisibilityMiles, Max Wind SpeedMPH, Mean Wind SpeedMPH, Max Gust SpeedMPH,PrecipitationIn, CloudCover, Events, WindDirDegrees
2013-7-1,77,70,64,66,64,60,94,85,71,29.99,29.91,29.85,10,9,6,12,7,,0.11,6,Rain,47
2013-7-2,82,72,64,66,64,62,94,80,58,30.05,30.00,29.95,10,9,3,10,4,,0.00,6,,97
2013-7-3,84,75,66,69,67,64,97,78,56,30.14,30.10,30.04,10,9,6,15,4,18,0.00,2,,194
2013-7-4,78,73,69,70,68,65,94,83,69,30.21,30.16,30.12,10,9,7,13,6,16,0.02,6,Rain,201
2013-7-5,79,74,69,70,67,66,94,86,68,30.18,30.14,30.09,10,8,1,14,5,,0.33,6,Rain,200
2013-7-6,84,76,69,72,69,67,96,84,57,30.18,30.12,30.01,10,9,0,26,5,34,0.31,5,Fog-Rain,191
2013-7-7,80,72,66,68,65,62,93,79,62,30.12,30.07,30.00,10,10,10,12,7,,0.00,3,Rain,220
2013-7-8,84,73,64,69,65,59,93,77,58,30.11,30.08,30.04,10,9,5,16,6,24,0.22,3,Rain,222
2013-7-9,87,76,69,73,70,66,94,87,65,30.06,30.01,29.94,10,7,2,15,9,21,0.65,7,Rain,218
2013-7-10,86,74,66,76,68,63,100,90,73,29.96,29.91,29.80,10,6,1,34,9,47,3.16,7,Rain,231
2013-7-11,75,70,63,66,59,53,97,74,46,30.03,29.98,29.91,10,10,4,14,6,22,0.00,4,Rain,13
2013-7-12,79,68,59,63,59,56,93,73,46,30.11,30.08,30.04,10,10,10,12,3,18,0.00,1,,48
2013-7-13,82,72,63,66,63,58,87,69,53,30.22,30.16,30.11,10,10,10,8,3,,0.00,1,,87
2013-7-14,87,78,69,71,68,65,90,71,57,30.27,30.24,30.20,10,10,7,12,4,,0.00,3,,150
2013-7-15,90,80,70,72,69,66,93,70,48,30.35,30.29,30.25,10,10,6,9,4,146,0.00,3,,220
2013-7-16,88,80,73,75,73,71,93,79,61,30.33,30.29,30.26,10,9,2,18,3,25,0.04,2,Rain,301
2013-7-17,91,82,73,73,72,69,96,72,52,30.30,30.24,30.16,10,9,4,9,3,,0.00,1,,312
2013-7-18,91,82,73,74,72,71,91,72,52,30.18,30.10,30.02,10,9,4,10,3,18,0.00,1,,238
2013-7-19,91,82,75,73,71,69,88,74,54,30.02,29.93,29.85,10,9,7,17,8,23,0.00,1,,220
2013-7-20,79,73,68,72,69,66,96,84,71,29.94,29.87,29.81,10,8,2,20,8,33,0.44,5,Rain,222
2013-7-21,82,75,69,70,68,64,100,82,60,29.99,29.95,29.90,10,8,4,15,2,18,0.00,4,Rain,119
2013-7-22,75,70,66,71,65,62,96,88,73,29.95,29.85,29.77,10,7,2,8,2,,0.18,5,Rain,70
2013-7-23,80,70,62,70,65,63,100,88,71,29.81,29.76,29.67,10,5,0,16,4,29,1.27,6,Fog-Rain,219
2013-7-24,71,64,57,61,54,51,83,70,51,30.03,29.91,29.80,10,10,10,13,9,21,0.00,6,,22
2013-7-25,75,64,52,52,50,49,90,64,41,30.11,30.07,30.03,10,10,10,12,4,,0.00,0,,57
2013-7-26,79,66,54,57,54,51,97,66,45,30.10,30.05,29.97,10,10,6,12,2,,0.00,0,,204
2013-7-27,69,66,64,65,62,57,94,87,73,29.96,29.89,29.82,10,6,2,13,4,,0.30,6,Rain,214
2013-7-28,69,62,55,60,52,49,90,68,51,30.02,29.94,29.86,10,10,10,14,7,20,0.00,5,,252
2013-7-29,71,61,53,56,52,48,93,70,51,30.19,30.11,30.03,10,10,10,13,5,18,0.00,4,,241
2013-7-30,77,64,51,59,55,52,100,77,48,30.24,30.20,30.15,10,8,1,6,1,,0.00,1,,243
2013-7-31,73,66,60,66,62,58,94,83,66,30.16,30.06,29.94,10,9,5,7,2,,0.06,5,Rain,177